Time;durP1;ratioP1;P1;durP2;ratioP2;P2;SDS_P1;SDS_P2;PMS_P1;PMS_P2;Temp;Humidity;BMP_temperature;BMP_pressure;BME280_temperature;BME280_humidity;BME280_pressure;Samples;Min_cycle;Max_cycle;Signal;HPM_P1;HPM_P2
2023/07/23 00:01:13;;;;;;;4.63;2.30;;;20.00;99.90;;;;;;4177312;28;20495;-60
2023/07/23 00:03:17;;;;;;;4.18;2.28;;;20.00;99.90;;;;;;4167742;28;20114;-60
2023/07/23 00:05:18;;;;;;;5.22;2.33;;;20.00;99.90;;;;;;4166056;28;20115;-60
2023/07/23 00:07:19;;;;;;;4.50;2.50;;;20.10;99.90;;;;;;4185290;28;25116;-60
2023/07/23 00:09:19;;;;;;;4.47;2.75;;;20.10;99.90;;;;;;4164940;28;20036;-60
2023/07/23 00:11:20;;;;;;;3.50;2.30;;;20.10;99.90;;;;;;4165662;28;20446;-60
2023/07/23 00:13:20;;;;;;;3.58;2.50;;;20.10;99.90;;;;;;4167451;28;20037;-60
2023/07/23 00:15:21;;;;;;;4.47;2.25;;;20.10;99.90;;;;;;4158123;28;20029;-60
2023/07/23 00:17:22;;;;;;;5.13;2.55;;;20.10;99.90;;;;;;4167984;28;20033;-60
2023/07/23 00:19:23;;;;;;;4.43;2.58;;;20.10;99.90;;;;;;4163924;28;20416;-60
2023/07/23 00:21:24;;;;;;;4.38;2.58;;;20.10;99.90;;;;;;4168662;28;20376;-60
2023/07/23 00:23:24;;;;;;;6.60;2.33;;;20.20;99.90;;;;;;4165740;28;20037;-60
2023/07/23 00:25:25;;;;;;;4.95;2.40;;;20.20;99.90;;;;;;4168105;28;20033;-60
2023/07/23 00:27:25;;;;;;;3.65;2.30;;;20.20;99.90;;;;;;4163638;28;20393;-60
2023/07/23 00:29:26;;;;;;;5.90;3.00;;;20.20;99.90;;;;;;4167506;28;20033;-60
2023/07/23 00:31:27;;;;;;;5.97;2.75;;;20.10;99.90;;;;;;4168528;28;20036;-60
2023/07/23 00:33:27;;;;;;;4.40;2.60;;;20.10;99.90;;;;;;4177399;28;20036;-60
2023/07/23 00:35:28;;;;;;;3.60;2.40;;;20.10;99.90;;;;;;4173934;28;20064;-60
2023/07/23 00:37:29;;;;;;;3.70;2.30;;;20.10;99.90;;;;;;4166682;28;20038;-60
2023/07/23 00:39:29;;;;;;;4.40;2.33;;;20.10;99.90;;;;;;4164325;28;20049;-60
2023/07/23 00:41:30;;;;;;;4.00;2.63;;;20.10;99.90;;;;;;4162563;28;20036;-61
2023/07/23 00:43:30;;;;;;;5.25;2.40;;;20.10;99.90;;;;;;4156245;28;20401;-60
2023/07/23 00:45:32;;;;;;;5.68;2.53;;;20.10;99.90;;;;;;4157931;28;20081;-60
2023/07/23 00:47:33;;;;;;;7.20;2.35;;;20.10;99.90;;;;;;4166521;28;20033;-60
2023/07/23 00:49:34;;;;;;;4.78;2.30;;;20.10;99.90;;;;;;4172966;28;20372;-60
2023/07/23 00:51:35;;;;;;;3.58;2.22;;;20.10;99.90;;;;;;4152206;28;20379;-60
2023/07/23 00:53:36;;;;;;;3.17;2.28;;;20.10;99.90;;;;;;4160163;28;20491;-59
2023/07/23 00:55:37;;;;;;;5.38;2.45;;;20.10;99.90;;;;;;4161615;28;20056;-60
2023/07/23 00:57:37;;;;;;;4.05;2.42;;;20.00;99.90;;;;;;4168225;28;20041;-60
2023/07/23 00:59:39;;;;;;;5.70;2.40;;;20.00;99.90;;;;;;4161278;28;20440;-60
2023/07/23 01:01:39;;;;;;;7.43;2.40;;;19.90;99.90;;;;;;4129799;28;20033;-60
2023/07/23 01:03:40;;;;;;;4.22;2.60;;;19.90;99.90;;;;;;4158798;28;20048;-60
2023/07/23 01:05:44;;;;;;;4.00;2.58;;;19.90;99.90;;;;;;4163056;28;20029;-59
2023/07/23 01:07:48;;;;;;;3.33;2.30;;;19.90;99.90;;;;;;4159768;28;20030;-60
2023/07/23 01:09:49;;;;;;;4.07;2.60;;;19.90;99.90;;;;;;4161675;28;20107;-60
2023/07/23 01:11:52;;;;;;;5.38;2.80;;;19.90;99.90;;;;;;4159890;28;21009;-60
2023/07/23 01:13:55;;;;;;;4.05;2.63;;;19.90;99.90;;;;;;4152681;28;20485;-60
2023/07/23 01:15:57;;;;;;;3.38;2.50;;;19.90;99.90;;;;;;4160241;28;20095;-60
2023/07/23 01:18:00;;;;;;;4.68;2.25;;;19.90;99.90;;;;;;4160713;28;20354;-60
2023/07/23 01:20:05;;;;;;;4.53;2.47;;;19.90;99.90;;;;;;4159263;28;20038;-60
2023/07/23 01:22:06;;;;;;;5.22;2.35;;;19.90;99.90;;;;;;4154337;28;20438;-59
2023/07/23 01:24:07;;;;;;;3.83;2.40;;;19.90;99.90;;;;;;4161160;28;20033;-60
2023/07/23 01:26:07;;;;;;;3.38;2.50;;;19.90;99.90;;;;;;4165434;28;20037;-60
2023/07/23 01:28:08;;;;;;;4.95;2.85;;;19.90;99.90;;;;;;4161638;28;20037;-60
2023/07/23 01:30:08;;;;;;;4.45;2.63;;;19.80;99.90;;;;;;4158737;28;20034;-60
2023/07/23 01:32:09;;;;;;;3.42;2.22;;;19.80;99.90;;;;;;4160453;28;20072;-60
2023/07/23 01:34:10;;;;;;;5.65;3.05;;;19.90;99.90;;;;;;4171677;28;20119;-60
2023/07/23 01:36:11;;;;;;;3.17;2.35;;;19.80;99.90;;;;;;4155288;28;20037;-60
2023/07/23 01:38:13;;;;;;;3.70;2.20;;;19.90;99.90;;;;;;4162745;28;20625;-60
2023/07/23 01:40:17;;;;;;;4.47;2.50;;;19.90;99.90;;;;;;4156984;28;20038;-60
2023/07/23 01:42:19;;;;;;;7.82;3.00;;;19.90;99.90;;;;;;4136204;28;20105;-60
2023/07/23 01:44:19;;;;;;;5.28;3.00;;;19.90;99.90;;;;;;4112197;28;20120;-60
2023/07/23 01:46:20;;;;;;;4.68;2.75;;;20.00;99.90;;;;;;4152979;28;20049;-60
2023/07/23 01:48:23;;;;;;;4.60;2.40;;;20.00;99.90;;;;;;4161183;28;20061;-60
2023/07/23 01:50:24;;;;;;;5.25;2.80;;;20.00;99.90;;;;;;4155184;28;20048;-60
2023/07/23 01:52:26;;;;;;;4.75;2.30;;;20.00;99.90;;;;;;4156504;28;20564;-60
2023/07/23 01:54:26;;;;;;;6.93;3.00;;;20.00;99.90;;;;;;4161053;28;20030;-60
2023/07/23 01:56:27;;;;;;;4.95;2.70;;;20.00;99.90;;;;;;4164495;28;20048;-60
2023/07/23 01:58:27;;;;;;;4.65;2.85;;;20.00;99.90;;;;;;4163478;28;20485;-60
2023/07/23 02:00:28;;;;;;;5.80;2.70;;;20.00;99.90;;;;;;4133583;28;20092;-60
2023/07/23 02:02:28;;;;;;;5.53;2.78;;;20.00;99.90;;;;;;4152826;28;20038;-60
2023/07/23 02:04:29;;;;;;;5.95;2.92;;;20.00;99.90;;;;;;4150930;28;20037;-59
2023/07/23 02:06:30;;;;;;;3.72;2.70;;;20.00;99.90;;;;;;4142789;28;20092;-60
2023/07/23 02:08:30;;;;;;;4.55;2.78;;;20.00;99.90;;;;;;4156490;28;20026;-60
2023/07/23 02:10:31;;;;;;;3.80;2.60;;;20.00;99.90;;;;;;4151915;28;20034;-60
2023/07/23 02:12:33;;;;;;;3.92;2.70;;;20.00;99.90;;;;;;4159280;28;20034;-60
2023/07/23 02:14:34;;;;;;;4.80;2.63;;;20.00;99.90;;;;;;4157393;28;20030;-61
2023/07/23 02:16:34;;;;;;;7.60;3.00;;;20.00;99.90;;;;;;4156581;28;20041;-61
2023/07/23 02:18:35;;;;;;;4.53;2.78;;;20.00;99.90;;;;;;4161271;28;20139;-60
2023/07/23 02:20:36;;;;;;;5.15;2.88;;;20.00;99.90;;;;;;4158581;28;20499;-60
2023/07/23 02:22:37;;;;;;;6.28;2.85;;;20.00;99.90;;;;;;4159131;28;20030;-60
2023/07/23 02:24:37;;;;;;;5.65;3.00;;;20.00;99.90;;;;;;4159446;28;20032;-60
2023/07/23 02:26:38;;;;;;;7.80;3.10;;;20.00;99.90;;;;;;4156387;28;20405;-60
2023/07/23 02:28:42;;;;;;;5.68;3.15;;;20.00;99.90;;;;;;4164336;28;20033;-60
2023/07/23 02:30:43;;;;;;;4.28;2.80;;;19.90;99.90;;;;;;4148008;28;20492;-59
2023/07/23 02:32:43;;;;;;;5.82;3.15;;;19.90;99.90;;;;;;4144616;28;20038;-61
2023/07/23 02:34:44;;;;;;;4.28;2.90;;;19.90;99.90;;;;;;4139582;28;20030;-60
2023/07/23 02:36:48;;;;;;;4.45;2.92;;;19.90;99.90;;;;;;4134880;28;20033;-60
2023/07/23 02:38:48;;;;;;;4.88;3.08;;;19.90;99.90;;;;;;4132390;28;20505;-59
2023/07/23 02:40:55;;;;;;;4.72;3.03;;;19.90;99.90;;;;;;4147707;28;20038;-60
2023/07/23 02:42:55;;;;;;;6.18;3.35;;;19.90;99.90;;;;;;4152536;28;20077;-61
2023/07/23 02:44:56;;;;;;;5.35;3.50;;;19.80;99.90;;;;;;4160998;28;20038;-60
2023/07/23 02:46:56;;;;;;;4.07;2.88;;;19.80;99.90;;;;;;4166936;28;20048;-60
2023/07/23 02:48:57;;;;;;;4.28;2.83;;;19.80;99.90;;;;;;4175762;28;20026;-60
2023/07/23 02:50:57;;;;;;;4.47;2.65;;;19.80;99.90;;;;;;4149436;28;20097;-60
2023/07/23 02:52:58;;;;;;;5.13;3.08;;;19.80;99.90;;;;;;4175516;28;20025;-60
2023/07/23 02:54:58;;;;;;;3.53;2.83;;;19.90;99.90;;;;;;4172887;28;20296;-60
2023/07/23 02:56:59;;;;;;;6.32;3.17;;;19.80;99.90;;;;;;4165832;28;20041;-60
2023/07/23 02:59:01;;;;;;;5.00;3.45;;;19.90;99.90;;;;;;4163468;28;20036;-60
2023/07/23 03:01:02;;;;;;;6.80;3.38;;;19.90;99.90;;;;;;4168574;28;20116;-60
2023/07/23 03:03:07;;;;;;;4.38;3.05;;;19.90;99.90;;;;;;4176268;28;20040;-59
2023/07/23 03:05:07;;;;;;;4.57;2.88;;;19.90;99.90;;;;;;4166040;28;20035;-60
2023/07/23 03:07:11;;;;;;;6.38;2.97;;;19.90;99.90;;;;;;4169133;28;20444;-60
2023/07/23 03:09:11;;;;;;;6.32;3.35;;;19.90;99.90;;;;;;4168104;28;20055;-60
2023/07/23 03:11:12;;;;;;;5.20;3.45;;;19.80;99.90;;;;;;4173046;28;20094;-60
2023/07/23 03:13:13;;;;;;;6.45;3.80;;;19.80;99.90;;;;;;4174998;28;20033;-60
2023/07/23 03:15:14;;;;;;;6.20;3.25;;;19.80;99.90;;;;;;4170192;28;20276;-62
2023/07/23 03:17:15;;;;;;;5.65;3.70;;;19.80;99.90;;;;;;4173154;28;20037;-61
2023/07/23 03:19:15;;;;;;;5.85;3.72;;;19.80;99.90;;;;;;4176007;28;20488;-60
2023/07/23 03:21:16;;;;;;;6.57;3.75;;;19.70;99.90;;;;;;4173798;28;20395;-61
2023/07/23 03:23:16;;;;;;;5.03;3.72;;;19.70;99.90;;;;;;4176049;28;20051;-61
2023/07/23 03:25:17;;;;;;;8.05;3.38;;;19.70;99.90;;;;;;4146328;28;20044;-60
2023/07/23 03:27:18;;;;;;;6.20;3.92;;;19.70;99.90;;;;;;4169166;28;20041;-60
2023/07/23 03:29:18;;;;;;;5.53;3.85;;;19.70;99.90;;;;;;4174038;28;20029;-60
2023/07/23 03:31:19;;;;;;;6.32;3.33;;;19.60;99.90;;;;;;4163997;28;20040;-60
2023/07/23 03:33:20;;;;;;;6.68;3.88;;;19.60;99.90;;;;;;4172137;28;20037;-60
2023/07/23 03:35:21;;;;;;;5.05;3.80;;;19.60;99.90;;;;;;4172334;28;20484;-60
2023/07/23 03:37:21;;;;;;;6.47;4.10;;;19.60;99.90;;;;;;4174812;28;20091;-60
2023/07/23 03:39:22;;;;;;;5.40;3.33;;;19.60;99.90;;;;;;4176164;28;20032;-60
2023/07/23 03:41:23;;;;;;;5.18;3.72;;;19.50;99.90;;;;;;4171472;28;20549;-60
2023/07/23 03:43:23;;;;;;;7.53;3.85;;;19.60;99.90;;;;;;4171068;28;20562;-60
2023/07/23 03:45:24;;;;;;;4.68;3.55;;;19.60;99.90;;;;;;4174357;28;20060;-60
2023/07/23 03:47:24;;;;;;;4.63;3.47;;;19.60;99.90;;;;;;4171517;28;20032;-60
2023/07/23 03:49:25;;;;;;;9.25;3.67;;;19.60;99.90;;;;;;4178799;28;20042;-60
2023/07/23 03:51:25;;;;;;;5.03;3.72;;;19.50;99.90;;;;;;4178498;28;20391;-60
2023/07/23 03:53:26;;;;;;;4.93;3.50;;;19.50;99.90;;;;;;4179335;28;20374;-60
2023/07/23 03:55:27;;;;;;;6.78;4.00;;;19.50;99.90;;;;;;4174228;28;20117;-60
2023/07/23 03:57:27;;;;;;;5.88;3.67;;;19.50;99.90;;;;;;4175357;28;20041;-60
2023/07/23 03:59:36;;;;;;;5.72;3.70;;;19.50;99.90;;;;;;4152860;28;20109;-60
2023/07/23 04:01:36;;;;;;;5.13;3.72;;;19.50;99.90;;;;;;4176827;28;20147;-62
2023/07/23 04:03:37;;;;;;;4.93;3.72;;;19.50;99.90;;;;;;4178410;28;20040;-61
2023/07/23 04:05:37;;;;;;;5.32;3.55;;;19.50;99.90;;;;;;4175457;28;20032;-60
2023/07/23 04:07:38;;;;;;;6.15;3.60;;;19.50;99.90;;;;;;4174423;28;20047;-60
2023/07/23 04:09:39;;;;;;;5.97;3.50;;;19.50;99.90;;;;;;4176600;28;20099;-60
2023/07/23 04:11:39;;;;;;;5.68;3.67;;;19.60;99.90;;;;;;4176517;28;20385;-60
2023/07/23 04:13:40;;;;;;;5.32;3.75;;;19.60;99.90;;;;;;4176651;28;20033;-60
2023/07/23 04:15:41;;;;;;;5.95;4.20;;;19.60;99.90;;;;;;4175516;28;20162;-60
2023/07/23 04:17:41;;;;;;;5.53;3.58;;;19.60;99.90;;;;;;4176002;28;20033;-60
2023/07/23 04:19:42;;;;;;;7.60;3.80;;;19.50;99.90;;;;;;4177755;28;20037;-60
2023/07/23 04:21:42;;;;;;;7.35;4.03;;;19.50;99.90;;;;;;4175773;28;20112;-60
2023/07/23 04:23:47;;;;;;;7.28;3.53;;;19.60;99.90;;;;;;4178085;28;20033;-60
2023/07/23 04:25:47;;;;;;;7.38;3.50;;;19.60;99.90;;;;;;4172021;28;20029;-60
2023/07/23 04:27:48;;;;;;;6.28;3.55;;;19.60;99.90;;;;;;4176827;28;20056;-60
2023/07/23 04:29:49;;;;;;;4.82;3.42;;;19.60;99.90;;;;;;4176630;28;20029;-59
2023/07/23 04:31:49;;;;;;;6.90;3.60;;;19.60;99.90;;;;;;4171084;28;20040;-60
2023/07/23 04:33:50;;;;;;;8.57;4.15;;;19.50;99.90;;;;;;4178330;28;20071;-60
2023/07/23 04:35:51;;;;;;;4.20;3.20;;;19.60;99.90;;;;;;4157411;28;20029;-60
2023/07/23 04:37:51;;;;;;;4.28;3.20;;;19.60;99.90;;;;;;4171282;28;20064;-60
2023/07/23 04:39:52;;;;;;;9.00;3.58;;;19.60;99.90;;;;;;4170792;28;20079;-60
2023/07/23 04:41:52;;;;;;;6.45;3.85;;;19.60;99.90;;;;;;4176835;28;20033;-60
2023/07/23 04:43:53;;;;;;;4.28;3.13;;;19.60;99.90;;;;;;4168670;28;20064;-60
2023/07/23 04:45:54;;;;;;;4.95;3.42;;;19.60;99.90;;;;;;4172148;28;20037;-59
2023/07/23 04:47:54;;;;;;;5.82;3.40;;;19.60;99.90;;;;;;4175222;28;20112;-60
2023/07/23 04:49:57;;;;;;;5.30;3.50;;;19.60;99.90;;;;;;4177334;28;20044;-60
2023/07/23 04:51:58;;;;;;;5.05;3.10;;;19.60;99.90;;;;;;4167975;28;20669;-60
2023/07/23 04:53:58;;;;;;;6.10;3.75;;;19.60;99.90;;;;;;4172753;28;20029;-60
2023/07/23 04:56:01;;;;;;;5.32;3.38;;;19.60;99.90;;;;;;4174148;28;20053;-59
2023/07/23 04:58:01;;;;;;;4.32;3.20;;;19.60;99.90;;;;;;4175589;28;20391;-60
2023/07/23 05:00:06;;;;;;;4.10;3.10;;;19.60;99.90;;;;;;4175565;28;20036;-60
2023/07/23 05:02:06;;;;;;;4.28;2.95;;;19.60;99.90;;;;;;4169772;28;20064;-59
2023/07/23 05:04:07;;;;;;;4.80;2.92;;;19.60;99.90;;;;;;4177524;28;20033;-60
2023/07/23 05:06:08;;;;;;;4.85;3.13;;;19.60;99.90;;;;;;4174353;28;20488;-60
2023/07/23 05:08:09;;;;;;;4.28;3.00;;;19.70;99.90;;;;;;4174456;28;20029;-60
2023/07/23 05:10:10;;;;;;;4.22;2.83;;;19.70;99.90;;;;;;4173335;28;20048;-61
2023/07/23 05:12:10;;;;;;;3.55;2.70;;;19.70;99.90;;;;;;4172653;28;20116;-61
2023/07/23 05:14:11;;;;;;;4.82;3.17;;;19.70;99.90;;;;;;4176431;28;20037;-60
2023/07/23 05:16:12;;;;;;;4.10;3.13;;;19.70;99.90;;;;;;4171813;28;20166;-60
2023/07/23 05:18:12;;;;;;;4.03;2.90;;;19.70;99.90;;;;;;4176807;28;20037;-60
2023/07/23 05:20:13;;;;;;;3.00;2.50;;;19.80;99.90;;;;;;4175716;28;20031;-60
2023/07/23 05:22:13;;;;;;;5.50;2.90;;;19.80;99.90;;;;;;4149343;28;20030;-60
2023/07/23 05:24:14;;;;;;;6.13;2.65;;;19.80;99.90;;;;;;4165654;28;20056;-60
2023/07/23 05:26:14;;;;;;;3.83;2.85;;;19.80;99.90;;;;;;4169435;28;20171;-60
2023/07/23 05:28:15;;;;;;;3.65;2.60;;;19.80;99.90;;;;;;4177212;28;20025;-60
2023/07/23 05:30:16;;;;;;;4.07;2.63;;;19.80;99.90;;;;;;4172082;28;20033;-60
2023/07/23 05:32:17;;;;;;;3.58;2.50;;;19.80;99.90;;;;;;4172323;28;20033;-60
2023/07/23 05:34:17;;;;;;;3.75;2.78;;;19.90;99.90;;;;;;4176262;28;20036;-60
2023/07/23 05:36:18;;;;;;;7.43;2.78;;;19.80;99.90;;;;;;4172386;28;20037;-61
2023/07/23 05:38:19;;;;;;;4.57;2.67;;;19.90;99.90;;;;;;4175400;28;20083;-60
2023/07/23 05:40:20;;;;;;;3.08;2.33;;;19.90;99.90;;;;;;4167149;28;20040;-61
2023/07/23 05:42:21;;;;;;;3.42;2.33;;;19.90;99.90;;;;;;4174299;28;20035;-60
2023/07/23 05:44:21;;;;;;;7.10;2.83;;;20.00;99.90;;;;;;4176764;28;20445;-60
2023/07/23 05:46:22;;;;;;;3.95;2.47;;;20.00;99.90;;;;;;4171694;28;21322;-60
2023/07/23 05:48:22;;;;;;;3.38;2.45;;;20.00;99.90;;;;;;4175656;28;20039;-60
2023/07/23 05:50:23;;;;;;;4.15;2.65;;;20.10;99.90;;;;;;4175317;28;20033;-60
2023/07/23 05:52:24;;;;;;;5.47;2.83;;;20.10;99.90;;;;;;4174305;28;20029;-60
2023/07/23 05:54:25;;;;;;;3.25;2.25;;;20.10;99.90;;;;;;4176227;28;20096;-60
2023/07/23 05:56:26;;;;;;;3.58;2.40;;;20.10;99.90;;;;;;4165922;28;20041;-60
2023/07/23 05:58:27;;;;;;;4.20;2.65;;;20.10;99.90;;;;;;4172929;28;20087;-60
2023/07/23 06:00:27;;;;;;;3.88;2.35;;;20.10;99.90;;;;;;4167768;28;20072;-60
2023/07/23 06:02:28;;;;;;;3.75;2.30;;;20.10;99.90;;;;;;4172982;28;20044;-60
2023/07/23 06:04:29;;;;;;;5.10;2.75;;;20.10;99.90;;;;;;4164911;28;20029;-60
2023/07/23 06:06:29;;;;;;;4.47;2.47;;;20.10;99.90;;;;;;4171632;28;20136;-60
2023/07/23 06:08:30;;;;;;;2.65;1.83;;;20.20;99.90;;;;;;4166582;28;20166;-62
2023/07/23 06:10:32;;;;;;;3.03;2.30;;;20.20;99.90;;;;;;4171754;28;20060;-62
2023/07/23 06:12:33;;;;;;;5.32;2.45;;;20.20;99.90;;;;;;4173953;28;20029;-62
2023/07/23 06:14:33;;;;;;;5.70;2.60;;;20.20;99.90;;;;;;4164443;28;20045;-62
2023/07/23 06:16:34;;;;;;;4.22;2.40;;;20.20;99.90;;;;;;4166879;28;20397;-62
2023/07/23 06:18:35;;;;;;;4.63;2.40;;;20.20;99.90;;;;;;4174008;28;20032;-62
2023/07/23 06:20:36;;;;;;;4.00;2.30;;;20.10;99.90;;;;;;4167055;28;20104;-62
2023/07/23 06:22:38;;;;;;;3.55;2.30;;;20.10;99.90;;;;;;4172250;28;20025;-62
2023/07/23 06:24:38;;;;;;;3.58;2.70;;;20.10;99.90;;;;;;4168870;28;20036;-62
2023/07/23 06:26:39;;;;;;;4.75;2.53;;;20.10;99.90;;;;;;4167959;28;20049;-62
2023/07/23 06:28:40;;;;;;;5.15;2.30;;;20.00;99.90;;;;;;4168782;28;20029;-62
2023/07/23 06:30:40;;;;;;;2.92;2.05;;;20.10;99.90;;;;;;4167607;28;25234;-62
2023/07/23 06:32:41;;;;;;;5.82;2.08;;;20.10;99.90;;;;;;4171997;28;20033;-62
2023/07/23 06:34:42;;;;;;;3.83;2.35;;;20.00;99.90;;;;;;4172652;28;20029;-63
2023/07/23 06:36:44;;;;;;;3.65;2.30;;;20.10;99.90;;;;;;4168855;28;20064;-63
2023/07/23 06:38:46;;;;;;;2.95;2.00;;;20.00;99.90;;;;;;4162417;28;20048;-62
2023/07/23 06:40:54;;;;;;;2.70;2.05;;;20.10;99.90;;;;;;4164796;28;20105;-62
2023/07/23 06:42:54;;;;;;;3.95;2.30;;;20.10;99.90;;;;;;4166179;28;20113;-62
2023/07/23 06:44:55;;;;;;;3.17;2.15;;;20.10;99.90;;;;;;4168381;28;20040;-62
2023/07/23 06:46:57;;;;;;;3.78;2.20;;;20.10;99.90;;;;;;4170491;28;20033;-62
2023/07/23 06:48:57;;;;;;;5.27;2.13;;;20.10;99.90;;;;;;4174335;28;20052;-62
2023/07/23 06:50:58;;;;;;;2.95;2.28;;;20.10;99.90;;;;;;4172995;28;20590;-62
2023/07/23 06:52:59;;;;;;;3.33;2.33;;;20.10;99.90;;;;;;4175973;28;20338;-62
2023/07/23 06:54:59;;;;;;;3.60;2.38;;;20.10;99.90;;;;;;4170744;28;20352;-62
2023/07/23 06:57:00;;;;;;;4.63;2.42;;;20.10;99.90;;;;;;4168869;28;20075;-62
2023/07/23 06:59:01;;;;;;;3.88;2.25;;;20.20;99.90;;;;;;4174294;28;20036;-62
2023/07/23 07:01:02;;;;;;;3.17;2.00;;;20.20;99.90;;;;;;4176007;28;20373;-62
2023/07/23 07:03:02;;;;;;;3.30;2.20;;;20.20;99.90;;;;;;4173453;28;20551;-62
2023/07/23 07:05:03;;;;;;;3.92;2.33;;;20.10;99.90;;;;;;4174091;28;20038;-67
2023/07/23 07:07:04;;;;;;;4.57;2.42;;;20.10;99.90;;;;;;4171419;28;20033;-62
2023/07/23 07:09:05;;;;;;;2.88;2.13;;;20.10;99.90;;;;;;4175061;28;20037;-62
2023/07/23 07:11:09;;;;;;;2.65;2.35;;;20.10;99.90;;;;;;4168792;28;20037;-62
2023/07/23 07:13:10;;;;;;;7.07;2.45;;;20.10;99.90;;;;;;4171787;28;20388;-62
2023/07/23 07:15:11;;;;;;;5.82;2.50;;;20.10;99.90;;;;;;4173765;28;20034;-63
2023/07/23 07:17:11;;;;;;;4.25;2.58;;;20.00;99.90;;;;;;4178205;28;20075;-62
2023/07/23 07:19:12;;;;;;;9.15;2.80;;;20.00;99.90;;;;;;4179216;28;20523;-62
2023/07/23 07:21:12;;;;;;;3.38;2.30;;;20.00;99.90;;;;;;4164926;28;20034;-62
2023/07/23 07:23:13;;;;;;;3.88;2.40;;;19.90;99.90;;;;;;4176207;28;20033;-64
2023/07/23 07:25:13;;;;;;;6.25;2.80;;;20.00;99.90;;;;;;4176098;28;20086;-63
2023/07/23 07:27:15;;;;;;;4.43;2.58;;;19.90;99.90;;;;;;4175256;28;20064;-62
2023/07/23 07:29:15;;;;;;;3.42;2.60;;;19.90;99.90;;;;;;4167605;28;20676;-62
2023/07/23 07:31:16;;;;;;;3.00;2.08;;;19.90;99.90;;;;;;4176065;28;20056;-62
2023/07/23 07:33:17;;;;;;;3.92;2.40;;;19.90;99.90;;;;;;4178619;28;20309;-62
2023/07/23 07:35:18;;;;;;;5.50;2.65;;;19.90;99.90;;;;;;4174350;28;20095;-62
2023/07/23 07:37:19;;;;;;;4.88;2.40;;;19.80;99.90;;;;;;4177505;28;20033;-62
2023/07/23 07:39:19;;;;;;;4.75;2.45;;;19.80;99.90;;;;;;4176442;28;20040;-62
2023/07/23 07:41:20;;;;;;;3.25;2.28;;;19.80;99.90;;;;;;4168979;28;20040;-62
2023/07/23 07:43:20;;;;;;;3.47;2.33;;;19.80;99.90;;;;;;4168582;28;20495;-62
2023/07/23 07:45:21;;;;;;;5.68;2.40;;;19.80;99.90;;;;;;4176406;28;20073;-62
2023/07/23 07:47:21;;;;;;;2.85;2.50;;;19.80;99.90;;;;;;4178358;28;20025;-62
2023/07/23 07:49:22;;;;;;;4.90;2.80;;;19.80;99.90;;;;;;4177325;28;20051;-65
2023/07/23 07:51:23;;;;;;;4.10;2.65;;;19.80;99.90;;;;;;4157643;28;20040;-63
2023/07/23 07:53:23;;;;;;;5.68;2.85;;;19.80;99.90;;;;;;4169678;28;20051;-62
2023/07/23 07:55:24;;;;;;;5.20;2.97;;;19.70;99.90;;;;;;4171521;28;20036;-62
2023/07/23 07:57:28;;;;;;;3.80;2.58;;;19.70;99.90;;;;;;4169513;28;20520;-62
2023/07/23 07:59:29;;;;;;;3.25;2.22;;;19.50;99.90;;;;;;4178274;28;20392;-62
2023/07/23 08:01:30;;;;;;;6.95;2.95;;;19.50;99.90;;;;;;4168501;28;20404;-62
2023/07/23 08:03:32;;;;;;;3.05;2.35;;;19.50;99.90;;;;;;4172104;28;20029;-62
2023/07/23 08:05:33;;;;;;;5.40;2.88;;;19.40;99.90;;;;;;4173981;28;20128;-62
2023/07/23 08:07:37;;;;;;;3.22;2.45;;;19.40;99.90;;;;;;4171756;28;20061;-62
2023/07/23 08:09:41;;;;;;;2.85;2.20;;;19.40;99.90;;;;;;4177452;28;20029;-62
2023/07/23 08:11:44;;;;;;;3.95;2.60;;;19.40;99.90;;;;;;4164524;28;20034;-62
2023/07/23 08:13:45;;;;;;;3.85;2.42;;;19.40;99.90;;;;;;4173165;28;20056;-62
2023/07/23 08:15:47;;;;;;;4.07;2.88;;;19.40;99.90;;;;;;4157610;28;20041;-62
2023/07/23 08:17:48;;;;;;;3.75;2.70;;;19.30;99.90;;;;;;4172051;28;20045;-62
2023/07/23 08:19:50;;;;;;;4.60;2.72;;;19.40;99.90;;;;;;4170775;28;20112;-62
2023/07/23 08:21:51;;;;;;;4.63;2.60;;;19.40;99.90;;;;;;4179838;28;20041;-62
2023/07/23 08:23:52;;;;;;;4.00;2.72;;;19.40;99.90;;;;;;4178135;28;20101;-62
2023/07/23 08:25:56;;;;;;;3.60;2.55;;;19.40;99.90;;;;;;4174767;28;20416;-62
2023/07/23 08:28:00;;;;;;;5.32;2.70;;;19.20;99.90;;;;;;4180602;28;20032;-62
2023/07/23 08:30:01;;;;;;;3.15;2.22;;;19.10;99.90;;;;;;4180552;28;20588;-62
2023/07/23 08:32:02;;;;;;;4.07;2.92;;;19.00;99.90;;;;;;4178539;28;20037;-62
2023/07/23 08:34:03;;;;;;;4.75;3.05;;;19.00;99.90;;;;;;4179433;28;20672;-62
2023/07/23 08:36:04;;;;;;;4.05;2.80;;;18.80;99.90;;;;;;4176504;28;20045;-62
2023/07/23 08:38:05;;;;;;;3.45;2.42;;;18.90;99.90;;;;;;4179142;28;20033;-62
2023/07/23 08:40:06;;;;;;;2.53;2.10;;;18.90;99.90;;;;;;4178664;28;20047;-63
2023/07/23 08:42:26;;;;;;;3.47;2.63;;;19.00;99.90;;;;;;4171425;28;20063;-62
2023/07/23 08:44:55;;;;;;;3.33;2.28;;;19.00;99.90;;;;;;4178748;28;20040;-61
2023/07/23 08:47:13;;;;;;;2.80;2.13;;;19.00;99.90;;;;;;4178131;28;20039;-62
2023/07/23 08:49:17;;;;;;;4.22;2.72;;;19.10;99.90;;;;;;4179297;28;20098;-62
2023/07/23 08:51:18;;;;;;;3.92;2.42;;;19.10;99.90;;;;;;4179223;28;20028;-62
2023/07/23 08:53:19;;;;;;;4.47;2.78;;;18.90;99.90;;;;;;4179167;28;20035;-63
2023/07/23 08:55:20;;;;;;;4.97;2.30;;;18.90;99.90;;;;;;4173524;28;20056;-62
2023/07/23 08:57:21;;;;;;;3.50;2.55;;;18.80;99.90;;;;;;4172859;28;20044;-62
2023/07/23 08:59:23;;;;;;;2.97;2.08;;;18.80;99.90;;;;;;4181112;28;20029;-62
2023/07/23 09:01:24;;;;;;;2.78;1.95;;;18.90;99.90;;;;;;4169605;28;20033;-62
2023/07/23 09:03:26;;;;;;;3.88;2.75;;;18.90;99.90;;;;;;4172655;28;20033;-62
2023/07/23 09:05:27;;;;;;;4.03;2.67;;;19.00;99.90;;;;;;4170488;28;20045;-62
2023/07/23 09:07:27;;;;;;;7.53;2.70;;;19.00;99.90;;;;;;4171709;28;20488;-62
2023/07/23 09:09:28;;;;;;;4.43;2.20;;;19.00;99.90;;;;;;4174032;28;20057;-62
2023/07/23 09:11:29;;;;;;;4.07;2.60;;;19.00;99.90;;;;;;4177687;28;20041;-62
2023/07/23 09:13:34;;;;;;;3.85;2.63;;;19.00;99.90;;;;;;4181292;28;20048;-62
2023/07/23 09:15:35;;;;;;;3.00;2.47;;;19.00;99.90;;;;;;4179673;28;20111;-62
2023/07/23 09:17:35;;;;;;;2.55;2.35;;;19.00;99.90;;;;;;4181492;28;20152;-62
2023/07/23 09:19:36;;;;;;;3.42;2.25;;;19.00;99.90;;;;;;4183158;28;20396;-62
2023/07/23 09:21:38;;;;;;;7.15;2.55;;;18.90;99.90;;;;;;4179345;28;20025;-62
2023/07/23 09:23:39;;;;;;;4.07;2.13;;;18.90;99.90;;;;;;4178516;28;20091;-62
2023/07/23 09:25:41;;;;;;;3.72;2.25;;;19.00;99.90;;;;;;4175313;28;20049;-62
2023/07/23 09:27:42;;;;;;;2.78;2.05;;;19.00;99.90;;;;;;4177259;28;20400;-62
2023/07/23 09:29:45;;;;;;;3.35;1.80;;;19.00;99.90;;;;;;4176168;28;20036;-62
2023/07/23 09:31:49;;;;;;;4.57;2.05;;;19.10;99.90;;;;;;4176364;28;20119;-62
2023/07/23 09:33:53;;;;;;;2.72;2.28;;;19.10;99.90;;;;;;4176277;28;20441;-62
2023/07/23 09:35:59;;;;;;;3.65;2.00;;;19.10;99.90;;;;;;4166421;28;20083;-63
2023/07/23 09:38:00;;;;;;;2.08;1.75;;;19.10;99.90;;;;;;4173172;28;20041;-62
2023/07/23 09:40:00;;;;;;;3.70;1.70;;;19.00;99.90;;;;;;4167809;28;20033;-62
2023/07/23 09:42:04;;;;;;;1.90;1.65;;;19.10;99.90;;;;;;4157161;28;20040;-62
2023/07/23 09:44:10;;;;;;;3.33;1.90;;;19.10;99.90;;;;;;4176841;28;20057;-62
2023/07/23 09:46:11;;;;;;;2.75;1.70;;;19.10;99.90;;;;;;4173090;28;20585;-62
2023/07/23 09:48:16;;;;;;;2.70;1.90;;;19.20;99.90;;;;;;4169147;28;20025;-62
2023/07/23 09:50:16;;;;;;;2.38;1.88;;;19.20;99.90;;;;;;4164723;28;20040;-62
2023/07/23 09:52:17;;;;;;;2.22;1.80;;;19.20;99.90;;;;;;4168707;28;20040;-62
2023/07/23 09:54:19;;;;;;;1.90;1.58;;;19.10;99.90;;;;;;4176771;28;20037;-62
2023/07/23 09:56:22;;;;;;;1.58;1.25;;;19.20;99.90;;;;;;4165819;28;20037;-62
2023/07/23 09:58:27;;;;;;;3.53;1.80;;;19.20;99.90;;;;;;4175991;28;20029;-62
2023/07/23 10:00:28;;;;;;;1.58;1.30;;;19.20;99.90;;;;;;4170553;28;20068;-62
2023/07/23 10:02:31;;;;;;;2.95;1.45;;;19.20;99.90;;;;;;4169414;28;20033;-62
2023/07/23 10:04:35;;;;;;;1.92;1.58;;;19.30;99.90;;;;;;4175325;28;20068;-62
2023/07/23 10:06:36;;;;;;;2.20;1.77;;;19.30;99.90;;;;;;4172736;28;20377;-62
2023/07/23 10:08:42;;;;;;;3.17;1.85;;;19.30;99.90;;;;;;4184069;28;20043;-62
2023/07/23 10:10:42;;;;;;;2.08;1.65;;;19.30;99.90;;;;;;4178115;28;20032;-62
2023/07/23 10:12:43;;;;;;;2.55;1.70;;;19.20;99.90;;;;;;4174821;28;20433;-62
2023/07/23 10:14:44;;;;;;;4.15;2.00;;;19.20;99.90;;;;;;4179048;28;20024;-62
2023/07/23 10:16:46;;;;;;;2.03;1.50;;;19.30;99.90;;;;;;4170950;28;20131;-62
2023/07/23 10:18:48;;;;;;;3.45;1.77;;;19.30;99.90;;;;;;4179376;28;20546;-62
2023/07/23 10:20:49;;;;;;;2.03;1.83;;;19.30;99.90;;;;;;4179327;28;20020;-62
2023/07/23 10:22:50;;;;;;;3.90;1.80;;;19.40;99.90;;;;;;4178368;28;20033;-62
2023/07/23 10:24:54;;;;;;;2.10;1.58;;;19.40;99.90;;;;;;4180719;28;20120;-62
2023/07/23 10:26:55;;;;;;;1.88;1.50;;;19.40;99.90;;;;;;4175868;28;20094;-62
2023/07/23 10:29:13;;;;;;;2.67;1.60;;;19.30;99.90;;;;;;4173265;28;20377;-62
2023/07/23 10:31:22;;;;;;;1.83;1.30;;;19.30;99.90;;;;;;4173552;28;20048;-62
2023/07/23 10:33:25;;;;;;;1.98;1.52;;;19.40;99.90;;;;;;4173858;28;20040;-63